sensor_id;sensor_type;location;lat;lon;timestamp;temperature;humidity
54558;DHT22;40452;50.080;20.040;2023-08-21T02:58:47;25.00;69.70
54558;DHT22;40452;50.080;20.040;2023-08-21T03:01:12;24.90;69.70
54558;DHT22;40452;50.080;20.040;2023-08-21T03:03:38;24.80;70.10
54558;DHT22;40452;50.080;20.040;2023-08-21T03:06:04;24.80;70.10
54558;DHT22;40452;50.080;20.040;2023-08-21T03:08:29;24.80;70.10
54558;DHT22;40452;50.080;20.040;2023-08-21T03:10:55;24.80;70.10
54558;DHT22;40452;50.080;20.040;2023-08-21T03:13:20;24.80;69.90
54558;DHT22;40452;50.080;20.040;2023-08-21T03:15:46;24.90;69.60
54558;DHT22;40452;50.080;20.040;2023-08-21T03:18:11;25.00;69.40
54558;DHT22;40452;50.080;20.040;2023-08-21T03:20:37;24.90;69.40
54558;DHT22;40452;50.080;20.040;2023-08-21T03:23:03;24.90;69.70
54558;DHT22;40452;50.080;20.040;2023-08-21T03:25:28;24.90;69.70
54558;DHT22;40452;50.080;20.040;2023-08-21T03:27:54;24.90;69.50
54558;DHT22;40452;50.080;20.040;2023-08-21T03:30:20;24.90;69.50
54558;DHT22;40452;50.080;20.040;2023-08-21T03:32:45;24.90;69.40
54558;DHT22;40452;50.080;20.040;2023-08-21T03:35:11;24.70;70.20
54558;DHT22;40452;50.080;20.040;2023-08-21T03:37:37;24.70;69.80
54558;DHT22;40452;50.080;20.040;2023-08-21T03:40:06;24.70;69.60
54558;DHT22;40452;50.080;20.040;2023-08-21T03:42:32;24.70;69.80
54558;DHT22;40452;50.080;20.040;2023-08-21T03:44:57;24.70;70.00
54558;DHT22;40452;50.080;20.040;2023-08-21T03:47:23;24.90;69.60
54558;DHT22;40452;50.080;20.040;2023-08-21T03:49:48;25.10;69.20
54558;DHT22;40452;50.080;20.040;2023-08-21T03:52:14;25.00;69.30
54558;DHT22;40452;50.080;20.040;2023-08-21T03:54:40;24.90;69.00
54558;DHT22;40452;50.080;20.040;2023-08-21T03:57:05;24.80;69.20
54558;DHT22;40452;50.080;20.040;2023-08-21T03:59:32;24.70;69.90
54558;DHT22;40452;50.080;20.040;2023-08-21T04:02:01;24.70;70.00
54558;DHT22;40452;50.080;20.040;2023-08-21T04:04:26;24.80;69.80
54558;DHT22;40452;50.080;20.040;2023-08-21T04:06:52;24.70;69.70
54558;DHT22;40452;50.080;20.040;2023-08-21T04:09:17;24.70;69.60
54558;DHT22;40452;50.080;20.040;2023-08-21T04:11:43;24.80;69.60
54558;DHT22;40452;50.080;20.040;2023-08-21T04:14:08;24.70;69.50
54558;DHT22;40452;50.080;20.040;2023-08-21T04:16:34;24.70;69.30
54558;DHT22;40452;50.080;20.040;2023-08-21T04:18:59;24.60;70.20
54558;DHT22;40452;50.080;20.040;2023-08-21T04:21:25;24.50;70.10
54558;DHT22;40452;50.080;20.040;2023-08-21T04:23:51;24.50;70.00
54558;DHT22;40452;50.080;20.040;2023-08-21T04:26:16;24.50;70.00
54558;DHT22;40452;50.080;20.040;2023-08-21T04:28:42;24.60;69.70
54558;DHT22;40452;50.080;20.040;2023-08-21T04:31:07;24.60;69.80
54558;DHT22;40452;50.080;20.040;2023-08-21T04:33:34;24.70;69.60
54558;DHT22;40452;50.080;20.040;2023-08-21T04:36:00;24.80;69.50
54558;DHT22;40452;50.080;20.040;2023-08-21T04:38:26;24.90;69.10
54558;DHT22;40452;50.080;20.040;2023-08-21T04:40:51;24.90;69.00
54558;DHT22;40452;50.080;20.040;2023-08-21T04:43:19;24.90;68.90
54558;DHT22;40452;50.080;20.040;2023-08-21T04:45:48;24.90;68.90
54558;DHT22;40452;50.080;20.040;2023-08-21T04:48:15;24.90;68.90
54558;DHT22;40452;50.080;20.040;2023-08-21T04:50:40;24.90;68.80
54558;DHT22;40452;50.080;20.040;2023-08-21T04:53:06;24.70;69.00
54558;DHT22;40452;50.080;20.040;2023-08-21T04:55:31;24.60;69.40
54558;DHT22;40452;50.080;20.040;2023-08-21T04:57:57;24.60;69.70
54558;DHT22;40452;50.080;20.040;2023-08-21T05:00:22;24.80;69.40
54558;DHT22;40452;50.080;20.040;2023-08-21T05:02:48;24.80;69.10
54558;DHT22;40452;50.080;20.040;2023-08-21T05:05:14;24.80;69.00
54558;DHT22;40452;50.080;20.040;2023-08-21T05:07:39;24.80;69.00
54558;DHT22;40452;50.080;20.040;2023-08-21T05:10:05;24.80;69.10
54558;DHT22;40452;50.080;20.040;2023-08-21T05:12:31;24.80;69.00
54558;DHT22;40452;50.080;20.040;2023-08-21T05:14:57;24.90;68.90
54558;DHT22;40452;50.080;20.040;2023-08-21T05:17:24;24.90;68.50
54558;DHT22;40452;50.080;20.040;2023-08-21T05:19:50;24.70;68.80
54558;DHT22;40452;50.080;20.040;2023-08-21T05:22:16;24.70;69.40
54558;DHT22;40452;50.080;20.040;2023-08-21T05:24:41;24.60;69.40
54558;DHT22;40452;50.080;20.040;2023-08-21T05:27:07;24.70;69.40
54558;DHT22;40452;50.080;20.040;2023-08-21T05:29:33;24.70;69.30
54558;DHT22;40452;50.080;20.040;2023-08-21T05:32:00;24.90;69.10
54558;DHT22;40452;50.080;20.040;2023-08-21T14:45:28;26.50;65.80
54558;DHT22;40452;50.080;20.040;2023-08-21T14:47:54;26.60;66.10
54558;DHT22;40452;50.080;20.040;2023-08-21T14:50:19;26.50;65.50
54558;DHT22;40452;50.080;20.040;2023-08-21T14:52:45;26.50;65.60
54558;DHT22;40452;50.080;20.040;2023-08-21T14:55:13;26.50;65.60
54558;DHT22;40452;50.080;20.040;2023-08-21T14:57:38;26.50;65.40
54558;DHT22;40452;50.080;20.040;2023-08-21T15:00:05;26.60;65.30
54558;DHT22;40452;50.080;20.040;2023-08-21T15:02:30;26.60;65.40
54558;DHT22;40452;50.080;20.040;2023-08-21T15:04:56;26.60;64.80
54558;DHT22;40452;50.080;20.040;2023-08-21T15:07:21;26.60;64.80
54558;DHT22;40452;50.080;20.040;2023-08-21T15:09:47;26.60;64.60
54558;DHT22;40452;50.080;20.040;2023-08-21T15:12:13;26.60;65.30
54558;DHT22;40452;50.080;20.040;2023-08-21T15:14:38;26.60;64.90
54558;DHT22;40452;50.080;20.040;2023-08-21T15:17:04;26.70;65.90
54558;DHT22;40452;50.080;20.040;2023-08-21T15:19:29;26.70;65.20
54558;DHT22;40452;50.080;20.040;2023-08-21T15:21:55;26.60;64.80
54558;DHT22;40452;50.080;20.040;2023-08-21T15:24:21;26.60;64.90
54558;DHT22;40452;50.080;20.040;2023-08-21T15:26:47;26.60;64.80
54558;DHT22;40452;50.080;20.040;2023-08-21T15:29:13;26.60;64.70
54558;DHT22;40452;50.080;20.040;2023-08-21T15:31:38;26.60;64.90
54558;DHT22;40452;50.080;20.040;2023-08-21T15:34:04;26.60;65.20
54558;DHT22;40452;50.080;20.040;2023-08-21T15:36:29;26.60;66.80
54558;DHT22;40452;50.080;20.040;2023-08-21T15:38:55;26.50;65.60
54558;DHT22;40452;50.080;20.040;2023-08-21T15:41:20;26.50;66.60
54558;DHT22;40452;50.080;20.040;2023-08-21T15:43:46;26.50;66.20
54558;DHT22;40452;50.080;20.040;2023-08-21T15:46:11;26.50;66.30
54558;DHT22;40452;50.080;20.040;2023-08-21T15:48:37;26.60;66.40
54558;DHT22;40452;50.080;20.040;2023-08-21T15:51:03;26.50;65.70
54558;DHT22;40452;50.080;20.040;2023-08-21T15:53:28;26.50;66.60
54558;DHT22;40452;50.080;20.040;2023-08-21T15:55:54;26.50;66.40
54558;DHT22;40452;50.080;20.040;2023-08-21T15:58:19;26.50;65.90
54558;DHT22;40452;50.080;20.040;2023-08-21T16:00:45;26.50;66.80
54558;DHT22;40452;50.080;20.040;2023-08-21T16:03:10;26.50;66.40
54558;DHT22;40452;50.080;20.040;2023-08-21T16:05:36;26.50;66.50
54558;DHT22;40452;50.080;20.040;2023-08-21T16:08:02;26.50;66.30
54558;DHT22;40452;50.080;20.040;2023-08-21T16:10:29;26.50;65.80
54558;DHT22;40452;50.080;20.040;2023-08-21T16:12:55;26.50;65.50
54558;DHT22;40452;50.080;20.040;2023-08-21T16:15:20;26.50;65.50
54558;DHT22;40452;50.080;20.040;2023-08-21T16:17:48;26.50;65.80
54558;DHT22;40452;50.080;20.040;2023-08-21T16:20:13;26.50;65.20
54558;DHT22;40452;50.080;20.040;2023-08-21T16:22:41;26.50;65.30
54558;DHT22;40452;50.080;20.040;2023-08-21T16:25:07;26.50;65.20
54558;DHT22;40452;50.080;20.040;2023-08-21T16:27:32;26.50;65.50
54558;DHT22;40452;50.080;20.040;2023-08-21T16:29:58;26.60;65.40
54558;DHT22;40452;50.080;20.040;2023-08-21T16:32:23;26.50;65.30
54558;DHT22;40452;50.080;20.040;2023-08-21T16:34:49;26.50;65.30
54558;DHT22;40452;50.080;20.040;2023-08-21T16:37:15;26.50;65.40
54558;DHT22;40452;50.080;20.040;2023-08-21T16:39:41;26.60;65.50
54558;DHT22;40452;50.080;20.040;2023-08-21T16:42:06;26.60;65.50
54558;DHT22;40452;50.080;20.040;2023-08-21T16:44:33;26.60;65.60
54558;DHT22;40452;50.080;20.040;2023-08-21T16:46:58;26.50;65.50
54558;DHT22;40452;50.080;20.040;2023-08-21T16:49:24;26.50;65.50
54558;DHT22;40452;50.080;20.040;2023-08-21T16:51:49;26.60;65.80
54558;DHT22;40452;50.080;20.040;2023-08-21T16:54:15;26.50;65.70
54558;DHT22;40452;50.080;20.040;2023-08-21T16:56:40;26.50;65.80
54558;DHT22;40452;50.080;20.040;2023-08-21T16:59:06;26.60;65.90
54558;DHT22;40452;50.080;20.040;2023-08-21T17:01:34;26.50;65.90
54558;DHT22;40452;50.080;20.040;2023-08-21T17:04:00;26.60;66.00
54558;DHT22;40452;50.080;20.040;2023-08-21T17:06:26;26.60;66.00
54558;DHT22;40452;50.080;20.040;2023-08-21T17:08:51;26.50;66.00
54558;DHT22;40452;50.080;20.040;2023-08-21T17:11:17;26.60;66.30
54558;DHT22;40452;50.080;20.040;2023-08-21T17:13:42;26.60;66.30
54558;DHT22;40452;50.080;20.040;2023-08-21T17:16:10;26.60;66.60
54558;DHT22;40452;50.080;20.040;2023-08-21T17:18:37;26.50;66.40
54558;DHT22;40452;50.080;20.040;2023-08-21T17:21:02;26.60;67.30
54558;DHT22;40452;50.080;20.040;2023-08-21T17:23:28;26.60;66.80
54558;DHT22;40452;50.080;20.040;2023-08-21T17:25:54;26.60;66.80
54558;DHT22;40452;50.080;20.040;2023-08-21T17:28:20;26.60;67.00
54558;DHT22;40452;50.080;20.040;2023-08-21T17:30:45;26.60;67.00
54558;DHT22;40452;50.080;20.040;2023-08-21T17:33:11;26.50;66.80
54558;DHT22;40452;50.080;20.040;2023-08-21T17:35:36;26.50;67.00
54558;DHT22;40452;50.080;20.040;2023-08-21T17:38:02;26.50;67.20
54558;DHT22;40452;50.080;20.040;2023-08-21T17:40:28;26.60;67.20
54558;DHT22;40452;50.080;20.040;2023-08-21T17:42:54;26.50;67.30
54558;DHT22;40452;50.080;20.040;2023-08-21T17:45:19;26.60;67.60
54558;DHT22;40452;50.080;20.040;2023-08-21T17:47:45;26.50;67.40
54558;DHT22;40452;50.080;20.040;2023-08-21T17:50:11;26.60;67.50
54558;DHT22;40452;50.080;20.040;2023-08-21T17:52:36;26.50;67.60
54558;DHT22;40452;50.080;20.040;2023-08-21T17:55:02;26.60;67.70
54558;DHT22;40452;50.080;20.040;2023-08-21T17:57:28;26.50;67.80
54558;DHT22;40452;50.080;20.040;2023-08-21T17:59:54;26.60;67.80
54558;DHT22;40452;50.080;20.040;2023-08-21T18:02:20;26.60;67.80
54558;DHT22;40452;50.080;20.040;2023-08-21T18:04:46;26.60;67.90
54558;DHT22;40452;50.080;20.040;2023-08-21T18:07:11;26.50;67.90
54558;DHT22;40452;50.080;20.040;2023-08-21T18:09:37;26.60;67.90
54558;DHT22;40452;50.080;20.040;2023-08-21T18:12:04;26.50;67.80
54558;DHT22;40452;50.080;20.040;2023-08-21T18:14:29;26.60;68.00
54558;DHT22;40452;50.080;20.040;2023-08-21T18:16:59;26.60;67.90
54558;DHT22;40452;50.080;20.040;2023-08-21T18:19:29;26.60;69.10
54558;DHT22;40452;50.080;20.040;2023-08-21T18:21:55;26.60;69.10
54558;DHT22;40452;50.080;20.040;2023-08-21T18:24:20;26.60;70.00
54558;DHT22;40452;50.080;20.040;2023-08-21T18:26:46;26.60;69.30
54558;DHT22;40452;50.080;20.040;2023-08-21T18:29:14;26.60;69.90
54558;DHT22;40452;50.080;20.040;2023-08-21T18:31:40;26.60;70.00
54558;DHT22;40452;50.080;20.040;2023-08-21T18:34:05;26.60;70.30
54558;DHT22;40452;50.080;20.040;2023-08-21T18:36:31;26.60;70.30
54558;DHT22;40452;50.080;20.040;2023-08-21T18:38:58;26.60;70.40
54558;DHT22;40452;50.080;20.040;2023-08-21T18:41:27;26.60;70.80
54558;DHT22;40452;50.080;20.040;2023-08-21T18:43:54;26.60;70.20
54558;DHT22;40452;50.080;20.040;2023-08-21T18:46:19;26.60;70.70
54558;DHT22;40452;50.080;20.040;2023-08-21T18:48:45;26.60;70.80
54558;DHT22;40452;50.080;20.040;2023-08-21T18:51:10;26.60;70.70
54558;DHT22;40452;50.080;20.040;2023-08-21T18:53:36;26.60;70.20
54558;DHT22;40452;50.080;20.040;2023-08-21T18:56:02;26.60;70.60
54558;DHT22;40452;50.080;20.040;2023-08-21T18:58:29;26.60;71.00
54558;DHT22;40452;50.080;20.040;2023-08-21T19:00:56;26.60;70.00
54558;DHT22;40452;50.080;20.040;2023-08-21T19:03:22;26.60;70.30
54558;DHT22;40452;50.080;20.040;2023-08-21T19:05:48;26.70;70.50
54558;DHT22;40452;50.080;20.040;2023-08-21T19:08:13;26.60;70.60
54558;DHT22;40452;50.080;20.040;2023-08-21T19:10:39;26.60;70.50
54558;DHT22;40452;50.080;20.040;2023-08-21T19:13:05;26.60;69.90
54558;DHT22;40452;50.080;20.040;2023-08-21T19:15:33;26.60;70.50
54558;DHT22;40452;50.080;20.040;2023-08-21T19:17:59;26.60;70.80
54558;DHT22;40452;50.080;20.040;2023-08-21T19:20:27;26.60;70.60
54558;DHT22;40452;50.080;20.040;2023-08-21T19:22:53;26.60;70.30
54558;DHT22;40452;50.080;20.040;2023-08-21T19:25:19;26.60;70.70
